createdAt,value
2022-07-31T00:00:51.581Z,18.79
2022-07-31T00:03:56.962Z,18.70
2022-07-31T00:07:02.937Z,18.76
2022-07-31T00:10:11.271Z,18.63
2022-07-31T00:13:18.220Z,18.67
2022-07-31T00:16:43.677Z,18.53
2022-07-31T00:19:48.897Z,18.59
2022-07-31T00:22:55.228Z,18.63
2022-07-31T00:26:01.673Z,18.61
2022-07-31T00:29:07.740Z,18.55
2022-07-31T00:32:14.209Z,18.50
2022-07-31T00:35:19.470Z,18.51
2022-07-31T00:38:26.905Z,18.50
2022-07-31T00:41:42.472Z,18.41
2022-07-31T00:44:49.232Z,18.35
2022-07-31T00:47:55.770Z,18.39
2022-07-31T00:51:01.253Z,18.38
2022-07-31T00:54:07.094Z,18.32
2022-07-31T00:57:16.318Z,18.31
2022-07-31T01:00:23.447Z,18.25
2022-07-31T01:03:28.750Z,18.26
2022-07-31T01:06:33.984Z,18.23
2022-07-31T01:09:41.081Z,18.20
2022-07-31T01:12:54.526Z,18.23
2022-07-31T01:16:00.409Z,18.24
2022-07-31T01:19:19.821Z,18.32
2022-07-31T01:22:45.693Z,18.32
2022-07-31T01:26:03.866Z,18.30
2022-07-31T01:29:27.154Z,18.28
2022-07-31T01:32:38.494Z,18.28
2022-07-31T01:35:50.563Z,18.23
2022-07-31T01:38:57.894Z,18.19
2022-07-31T01:42:06.846Z,18.10
2022-07-31T01:45:15.335Z,18.10
2022-07-31T01:48:20.804Z,18.08
2022-07-31T01:51:27.947Z,18.08
2022-07-31T01:54:34.061Z,18.04
2022-07-31T01:57:43.221Z,18.02
2022-07-31T02:00:52.178Z,17.97
2022-07-31T02:04:00.566Z,17.90
2022-07-31T02:07:09.250Z,17.85
2022-07-31T02:10:17.153Z,17.80
2022-07-31T02:13:24.607Z,17.84
2022-07-31T02:16:31.657Z,17.65
2022-07-31T02:20:00.210Z,17.74
2022-07-31T02:23:07.580Z,17.66
2022-07-31T02:26:13.637Z,17.68
2022-07-31T02:29:20.387Z,17.61
2022-07-31T02:32:28.901Z,17.61
2022-07-31T02:35:34.515Z,17.56
2022-07-31T02:38:42.053Z,17.61
2022-07-31T02:41:48.239Z,17.53
2022-07-31T02:44:53.946Z,17.47
2022-07-31T02:48:00.580Z,17.48
2022-07-31T02:51:06.392Z,17.46
2022-07-31T02:54:13.565Z,17.39
2022-07-31T02:57:18.818Z,17.36
2022-07-31T03:00:27.199Z,17.35
2022-07-31T03:03:35.272Z,17.35
2022-07-31T03:06:41.120Z,17.31
2022-07-31T03:09:47.604Z,17.39
2022-07-31T03:13:18.892Z,17.34
2022-07-31T03:16:24.153Z,17.29
2022-07-31T03:19:31.196Z,17.32
2022-07-31T03:22:36.653Z,17.32
2022-07-31T03:25:43.291Z,17.35
2022-07-31T03:28:48.817Z,17.41
2022-07-31T03:31:54.800Z,17.42
2022-07-31T03:35:01.289Z,17.39
2022-07-31T03:38:40.492Z,17.27
2022-07-31T03:41:33.593Z,17.39
2022-07-31T03:44:41.544Z,17.42
2022-07-31T03:47:46.801Z,17.50
2022-07-31T03:50:53.461Z,17.48
2022-07-31T03:53:58.653Z,17.41
2022-07-31T03:57:27.002Z,17.42
2022-07-31T04:00:34.854Z,17.48
2022-07-31T04:03:42.804Z,17.50
2022-07-31T04:07:08.185Z,17.50
2022-07-31T04:10:13.777Z,17.43
2022-07-31T04:13:19.192Z,17.51
2022-07-31T04:16:24.471Z,17.55
2022-07-31T04:19:31.110Z,17.57
2022-07-31T04:22:38.203Z,17.58
2022-07-31T04:25:50.350Z,17.63
2022-07-31T04:29:07.728Z,17.67
2022-07-31T04:32:14.513Z,17.68
2022-07-31T04:35:26.308Z,17.74
2022-07-31T04:38:32.910Z,17.73
2022-07-31T04:41:38.141Z,17.80
2022-07-31T04:44:45.236Z,17.82
2022-07-31T04:47:50.885Z,17.82
2022-07-31T04:50:56.057Z,17.88
2022-07-31T04:54:02.601Z,17.84
2022-07-31T04:57:08.057Z,17.85
2022-07-31T05:00:14.936Z,17.92
2022-07-31T05:03:20.246Z,17.94
2022-07-31T05:06:35.463Z,18.01
2022-07-31T05:09:42.640Z,18.03
2022-07-31T05:12:48.964Z,18.10
2022-07-31T05:15:54.970Z,18.14
2022-07-31T05:19:01.799Z,18.21
2022-07-31T05:22:25.531Z,18.23
2022-07-31T05:26:05.304Z,18.29
2022-07-31T05:29:10.443Z,18.28
2022-07-31T05:32:16.147Z,18.36
2022-07-31T05:35:22.207Z,18.43
2022-07-31T05:38:28.186Z,18.49
2022-07-31T05:42:03.799Z,18.52
2022-07-31T05:45:41.344Z,18.61
2022-07-31T05:48:47.494Z,18.69
2022-07-31T05:51:54.556Z,18.85
2022-07-31T05:54:59.935Z,18.94
2022-07-31T05:58:24.884Z,19.15
2022-07-31T06:01:30.968Z,19.28
2022-07-31T06:04:36.131Z,19.54
2022-07-31T06:07:41.647Z,19.70
2022-07-31T06:10:56.783Z,19.83
2022-07-31T06:14:03.557Z,20.11
2022-07-31T06:17:40.595Z,20.27
2022-07-31T06:20:59.969Z,20.53
2022-07-31T06:24:06.421Z,20.58
2022-07-31T06:27:33.306Z,20.78
2022-07-31T06:30:41.113Z,20.98
2022-07-31T06:33:48.238Z,21.13
2022-07-31T06:36:55.620Z,21.26
2022-07-31T06:40:01.405Z,21.42
2022-07-31T06:43:35.734Z,21.55
2022-07-31T06:47:23.530Z,21.68
2022-07-31T06:50:28.989Z,21.84
2022-07-31T06:54:10.053Z,22.04
2022-07-31T06:57:16.373Z,22.49
2022-07-31T07:00:22.528Z,22.52
2022-07-31T07:03:31.496Z,22.35
2022-07-31T07:06:36.825Z,22.38
2022-07-31T07:09:41.945Z,22.48
2022-07-31T07:12:54.392Z,22.53
2022-07-31T07:16:00.254Z,22.69
2022-07-31T07:19:07.329Z,22.74
2022-07-31T07:22:13.524Z,22.80
2022-07-31T07:25:20.564Z,22.92
2022-07-31T07:28:30.713Z,22.97
2022-07-31T07:31:39.261Z,23.00
2022-07-31T07:34:46.315Z,23.11
2022-07-31T07:38:09.357Z,23.16
2022-07-31T07:41:15.425Z,23.27
2022-07-31T07:44:23.905Z,23.37
2022-07-31T07:48:02.819Z,23.46
2022-07-31T07:50:57.827Z,23.41
2022-07-31T07:54:08.776Z,23.51
2022-07-31T07:57:52.185Z,23.56
2022-07-31T08:01:20.868Z,23.53
2022-07-31T08:04:31.694Z,23.64
2022-07-31T08:07:41.810Z,23.68
2022-07-31T08:11:06.608Z,23.65
2022-07-31T08:14:35.627Z,23.73
2022-07-31T08:18:03.669Z,23.73
2022-07-31T08:21:09.277Z,23.70
2022-07-31T08:24:16.868Z,23.66
2022-07-31T08:27:40.516Z,23.65
2022-07-31T08:30:47.682Z,23.63
2022-07-31T08:33:57.079Z,23.63
2022-07-31T08:37:52.553Z,23.62
2022-07-31T08:40:31.434Z,23.55
2022-07-31T08:44:02.930Z,23.55
2022-07-31T08:47:13.195Z,23.59
2022-07-31T08:50:18.838Z,23.57
2022-07-31T08:53:25.223Z,23.54
2022-07-31T08:56:46.446Z,23.60
2022-07-31T08:59:54.745Z,23.70
2022-07-31T09:03:01.334Z,23.64
2022-07-31T09:06:15.986Z,23.65
2022-07-31T09:09:21.186Z,23.58
2022-07-31T09:12:34.805Z,23.49
2022-07-31T09:15:45.259Z,23.47
2022-07-31T09:18:58.680Z,23.63
2022-07-31T09:22:08.441Z,23.58
2022-07-31T09:25:19.228Z,23.66
2022-07-31T09:28:35.779Z,23.63
2022-07-31T09:31:41.434Z,23.60
2022-07-31T09:34:55.507Z,23.66
2022-07-31T09:38:00.891Z,23.64
2022-07-31T09:41:58.133Z,23.65
2022-07-31T09:45:19.154Z,23.63
2022-07-31T09:48:26.569Z,23.57
2022-07-31T09:51:40.831Z,23.58
2022-07-31T09:54:47.864Z,23.60
2022-07-31T09:58:06.665Z,23.60
2022-07-31T10:01:18.352Z,23.66
2022-07-31T10:04:24.572Z,23.74
2022-07-31T10:07:35.789Z,23.82
2022-07-31T10:11:04.516Z,23.86
2022-07-31T10:14:23.682Z,23.83
2022-07-31T10:17:35.927Z,23.87
2022-07-31T10:20:44.192Z,24.02
2022-07-31T10:24:27.393Z,23.99
2022-07-31T10:27:39.343Z,24.07
2022-07-31T10:30:49.053Z,24.10
2022-07-31T10:33:55.981Z,24.17
2022-07-31T10:37:24.153Z,24.23
2022-07-31T10:40:53.148Z,24.34
2022-07-31T10:44:02.163Z,24.36
2022-07-31T10:47:40.083Z,24.40
2022-07-31T10:51:09.683Z,24.41
2022-07-31T10:54:41.624Z,24.44
2022-07-31T10:58:12.666Z,24.54
2022-07-31T11:01:29.562Z,24.50
2022-07-31T11:05:13.300Z,24.61
2022-07-31T11:08:51.593Z,24.69
2022-07-31T11:12:22.273Z,24.68
2022-07-31T11:15:53.736Z,24.70
2022-07-31T11:19:18.020Z,24.73
2022-07-31T11:22:32.019Z,24.85
2022-07-31T11:25:40.206Z,24.90
2022-07-31T11:28:45.800Z,24.92
2022-07-31T11:31:51.240Z,24.89
2022-07-31T11:34:58.360Z,24.92
2022-07-31T11:38:03.565Z,25.05
2022-07-31T11:41:14.275Z,25.01
2022-07-31T11:44:22.677Z,25.01
2022-07-31T11:48:12.040Z,25.03
2022-07-31T11:51:03.738Z,24.93
2022-07-31T11:54:09.014Z,24.97
2022-07-31T11:57:15.848Z,24.97
2022-07-31T12:00:26.281Z,25.06
2022-07-31T12:03:37.323Z,25.19
2022-07-31T12:06:42.568Z,25.23
2022-07-31T12:10:01.123Z,25.30
2022-07-31T12:13:16.175Z,25.36
2022-07-31T12:16:21.488Z,25.34
2022-07-31T12:19:31.476Z,25.33
2022-07-31T12:22:43.086Z,25.42
2022-07-31T12:25:48.463Z,25.46
2022-07-31T12:29:02.640Z,25.53
2022-07-31T12:32:09.164Z,25.52
2022-07-31T12:35:14.724Z,25.45
2022-07-31T12:38:40.610Z,25.51
2022-07-31T12:41:50.608Z,25.52
2022-07-31T12:45:01.136Z,25.45
2022-07-31T12:48:24.705Z,25.51
2022-07-31T12:51:45.853Z,25.48
2022-07-31T12:54:52.140Z,25.63
2022-07-31T12:57:58.115Z,25.63
2022-07-31T13:01:04.725Z,25.60
2022-07-31T13:04:18.272Z,25.76
2022-07-31T13:07:24.804Z,25.66
2022-07-31T13:10:32.386Z,25.71
2022-07-31T13:13:38.418Z,25.62
2022-07-31T13:16:45.089Z,25.60
2022-07-31T13:19:50.410Z,25.51
2022-07-31T13:22:55.596Z,25.37
2022-07-31T13:26:01.279Z,25.30
2022-07-31T13:29:07.480Z,25.13
2022-07-31T13:32:15.316Z,25.30
2022-07-31T13:35:27.858Z,25.48
2022-07-31T13:38:35.606Z,25.08
2022-07-31T13:41:41.954Z,25.31
2022-07-31T13:44:47.240Z,25.29
2022-07-31T13:47:58.264Z,25.20
2022-07-31T13:51:06.058Z,25.36
2022-07-31T13:54:14.154Z,25.17
2022-07-31T13:57:19.543Z,25.58
2022-07-31T14:00:24.626Z,25.64
2022-07-31T14:03:32.036Z,25.61
2022-07-31T14:06:39.924Z,25.70
2022-07-31T14:09:47.140Z,25.59
2022-07-31T14:13:00.408Z,25.79
2022-07-31T14:16:06.584Z,26.42
2022-07-31T14:19:13.185Z,26.85
2022-07-31T14:22:18.485Z,27.92
2022-07-31T14:25:23.785Z,27.76
2022-07-31T14:28:28.988Z,26.81
2022-07-31T14:31:34.501Z,26.23
2022-07-31T14:34:41.170Z,26.39
2022-07-31T14:37:47.837Z,26.20
2022-07-31T14:40:54.054Z,26.10
2022-07-31T14:43:59.285Z,25.94
2022-07-31T14:47:04.656Z,25.96
2022-07-31T14:50:17.479Z,25.87
2022-07-31T14:53:24.852Z,25.50
2022-07-31T14:56:58.492Z,25.53
2022-07-31T14:59:55.524Z,25.11
2022-07-31T15:03:00.770Z,25.38
2022-07-31T15:06:41.932Z,25.36
2022-07-31T15:09:33.396Z,25.25
2022-07-31T15:12:39.068Z,25.32
2022-07-31T15:15:45.382Z,25.17
2022-07-31T15:18:51.680Z,25.22
2022-07-31T15:22:10.345Z,25.03
2022-07-31T15:25:21.695Z,25.17
2022-07-31T15:28:27.043Z,25.09
2022-07-31T15:31:32.432Z,25.17
2022-07-31T15:34:37.909Z,25.20
2022-07-31T15:37:45.529Z,25.12
2022-07-31T15:40:50.820Z,25.15
2022-07-31T15:43:56.132Z,24.89
2022-07-31T15:47:01.357Z,24.95
2022-07-31T15:50:08.577Z,24.87
2022-07-31T15:53:15.449Z,24.87
2022-07-31T15:56:21.258Z,24.73
2022-07-31T15:59:26.469Z,24.82
2022-07-31T16:02:31.725Z,24.72
2022-07-31T16:05:38.824Z,24.64
2022-07-31T16:08:45.625Z,24.68
2022-07-31T16:12:04.864Z,24.61
2022-07-31T16:15:12.830Z,24.59
2022-07-31T16:18:18.851Z,24.53
2022-07-31T16:21:24.513Z,24.36
2022-07-31T16:24:31.079Z,24.40
2022-07-31T16:27:37.256Z,24.34
2022-07-31T16:30:42.454Z,24.28
2022-07-31T16:33:50.955Z,24.26
2022-07-31T16:36:56.309Z,24.12
2022-07-31T16:40:02.845Z,24.25
2022-07-31T16:43:50.706Z,24.15
2022-07-31T16:46:35.388Z,23.95
2022-07-31T16:49:41.847Z,23.72
2022-07-31T16:52:50.124Z,23.80
2022-07-31T16:56:01.908Z,23.68
2022-07-31T16:59:07.704Z,23.56
2022-07-31T17:02:13.121Z,23.46
2022-07-31T17:05:18.585Z,23.36
2022-07-31T17:08:23.787Z,23.35
2022-07-31T17:11:30.465Z,23.31
2022-07-31T17:14:36.069Z,23.17
2022-07-31T17:17:41.906Z,23.10
2022-07-31T17:20:47.936Z,23.06
2022-07-31T17:23:53.655Z,23.13
2022-07-31T17:27:04.918Z,23.09
2022-07-31T17:30:12.580Z,23.03
2022-07-31T17:33:18.065Z,22.76
2022-07-31T17:36:23.636Z,22.75
2022-07-31T17:39:30.992Z,22.81
2022-07-31T17:42:37.760Z,22.58
2022-07-31T17:45:59.852Z,22.66
2022-07-31T17:49:11.658Z,22.53
2022-07-31T17:52:25.926Z,22.62
2022-07-31T17:55:31.113Z,22.50
2022-07-31T17:58:37.669Z,22.31
2022-07-31T18:01:43.071Z,22.23
2022-07-31T18:04:57.000Z,22.27
2022-07-31T18:08:02.131Z,22.23
2022-07-31T18:11:08.353Z,22.18
2022-07-31T18:14:15.135Z,22.04
2022-07-31T18:17:23.623Z,21.94
2022-07-31T18:20:28.941Z,21.81
2022-07-31T18:23:34.117Z,21.75
2022-07-31T18:26:39.570Z,21.79
2022-07-31T18:29:54.296Z,21.76
2022-07-31T18:33:01.586Z,21.71
2022-07-31T18:36:07.166Z,21.65
2022-07-31T18:39:13.346Z,21.58
2022-07-31T18:42:18.693Z,21.53
2022-07-31T18:45:25.211Z,21.44
2022-07-31T18:48:32.063Z,21.39
2022-07-31T18:51:37.758Z,21.26
2022-07-31T18:54:43.357Z,21.28
2022-07-31T18:57:50.640Z,21.10
2022-07-31T19:00:57.314Z,21.18
2022-07-31T19:04:02.704Z,21.12
2022-07-31T19:07:08.793Z,21.06
2022-07-31T19:10:31.274Z,20.93
2022-07-31T19:13:36.872Z,20.93
2022-07-31T19:16:43.670Z,20.85
2022-07-31T19:19:54.915Z,20.80
2022-07-31T19:23:05.774Z,20.80
2022-07-31T19:26:18.237Z,20.74
2022-07-31T19:29:24.541Z,20.73
2022-07-31T19:32:32.483Z,20.60
2022-07-31T19:35:55.459Z,20.57
2022-07-31T19:39:03.265Z,20.54
2022-07-31T19:42:11.704Z,20.50
2022-07-31T19:45:18.562Z,20.50
2022-07-31T19:48:25.339Z,20.50
2022-07-31T19:51:31.491Z,20.42
2022-07-31T19:54:36.990Z,20.29
2022-07-31T19:57:43.630Z,20.37
2022-07-31T20:00:49.028Z,20.29
2022-07-31T20:03:57.572Z,20.21
2022-07-31T20:07:03.176Z,20.23
2022-07-31T20:10:10.114Z,20.20
2022-07-31T20:13:15.364Z,20.21
2022-07-31T20:16:20.675Z,20.04
2022-07-31T20:19:27.307Z,20.06
2022-07-31T20:22:32.583Z,19.98
2022-07-31T20:25:39.087Z,20.01
2022-07-31T20:28:44.477Z,19.94
2022-07-31T20:31:50.542Z,20.02
2022-07-31T20:34:57.136Z,19.99
2022-07-31T20:38:02.426Z,19.91
2022-07-31T20:41:07.556Z,19.89
2022-07-31T20:44:12.754Z,19.82
2022-07-31T20:47:21.576Z,19.88
2022-07-31T20:50:31.663Z,19.84
2022-07-31T20:53:36.848Z,19.86
2022-07-31T20:56:42.806Z,19.79
2022-07-31T20:59:48.654Z,19.72
2022-07-31T21:02:53.811Z,19.64
2022-07-31T21:06:01.193Z,19.62
2022-07-31T21:09:07.765Z,19.62
2022-07-31T21:12:12.957Z,19.60
2022-07-31T21:15:40.889Z,19.57
2022-07-31T21:18:43.808Z,19.61
2022-07-31T21:21:51.221Z,19.56
2022-07-31T21:24:57.085Z,19.56
2022-07-31T21:28:02.987Z,19.44
2022-07-31T21:31:08.645Z,19.45
2022-07-31T21:34:14.757Z,19.51
2022-07-31T21:37:21.582Z,19.43
2022-07-31T21:40:28.905Z,19.34
2022-07-31T21:43:47.259Z,19.41
2022-07-31T21:47:03.213Z,19.35
2022-07-31T21:50:10.040Z,19.43
2022-07-31T21:53:16.976Z,19.38
2022-07-31T21:56:22.092Z,19.31
2022-07-31T21:59:28.199Z,19.29
2022-07-31T22:02:33.981Z,19.28
2022-07-31T22:05:56.748Z,19.19
2022-07-31T22:09:03.282Z,19.17
2022-07-31T22:12:09.969Z,19.17
2022-07-31T22:15:16.178Z,19.22
2022-07-31T22:18:21.899Z,19.13
2022-07-31T22:21:27.703Z,19.12
2022-07-31T22:24:35.122Z,19.08
2022-07-31T22:27:59.248Z,19.09
2022-07-31T22:31:05.156Z,19.08
2022-07-31T22:34:12.387Z,19.02
2022-07-31T22:37:18.360Z,19.02
2022-07-31T22:40:25.624Z,18.96
2022-07-31T22:44:11.286Z,18.98
2022-07-31T22:46:57.401Z,18.92
2022-07-31T22:50:03.204Z,18.87
2022-07-31T22:53:09.504Z,18.87
2022-07-31T22:56:16.078Z,18.89
2022-07-31T22:59:21.783Z,18.82
2022-07-31T23:02:27.522Z,18.76
2022-07-31T23:06:02.792Z,18.74
2022-07-31T23:08:58.169Z,18.71
2022-07-31T23:12:06.145Z,18.72
2022-07-31T23:15:14.214Z,18.59
2022-07-31T23:18:19.357Z,18.75
2022-07-31T23:21:25.077Z,18.63
2022-07-31T23:24:30.602Z,18.73
2022-07-31T23:27:37.373Z,18.62
2022-07-31T23:30:43.340Z,18.59
2022-07-31T23:33:49.458Z,18.55
2022-07-31T23:36:54.592Z,18.50
2022-07-31T23:39:59.774Z,18.44
2022-07-31T23:43:06.588Z,18.43
2022-07-31T23:46:13.048Z,18.44
2022-07-31T23:49:22.000Z,18.44
2022-07-31T23:52:27.610Z,18.40
2022-07-31T23:55:32.907Z,18.37
2022-07-31T23:58:44.933Z,18.38
